Camden, West Virginia
Current Conditions -  °F | °C
As of 10:55 PM on Tuesday 21 Oct 2014 (Local Time) from KW22 Reporting Station
Overcast Overcast  
Wind Chill: 45°   Ceiling: 600
Heat Index: 45°   Visibility: 9mi
Dew Point: 45°   Wind: 0mph
Humidity: 100%   Direction: NA
Pressure: 30.04"   Gusts: 13mph
Location:  39.05°N, 80.57°W
Report Text: KW22 220255Z AUTO 00000G11KT 9SM BKN006 OVC009 07/07 A3004 RMK AO2
Loading
Personal Weather Stations






























Interactive Weather Map
Tropical Storm Tracking
New forecast layout! Learn more

10-Day Weather Forecast

Advertisements
Track Severe Weather on mobile